createdAt,value
2018-05-12T00:00:39.707Z,16.16
2018-05-12T00:01:39.919Z,16.26
2018-05-12T00:02:40.138Z,16.20
2018-05-12T00:03:42.085Z,16.20
2018-05-12T00:04:40.546Z,16.16
2018-05-12T00:05:40.768Z,16.12
2018-05-12T00:06:40.977Z,15.99
2018-05-12T00:07:41.185Z,16.07
2018-05-12T00:08:41.402Z,16.01
2018-05-12T00:09:43.593Z,16.07
2018-05-12T00:10:41.811Z,16.04
2018-05-12T00:11:42.023Z,16.03
2018-05-12T00:12:42.234Z,16.03
2018-05-12T00:13:42.453Z,15.97
2018-05-12T00:14:42.670Z,15.96
2018-05-12T00:15:42.887Z,15.89
2018-05-12T00:16:43.103Z,15.93
2018-05-12T00:17:43.307Z,15.96
2018-05-12T00:18:43.536Z,15.94
2018-05-12T00:19:43.753Z,15.85
2018-05-12T00:20:43.978Z,15.70
2018-05-12T00:21:44.199Z,15.60
2018-05-12T00:22:44.409Z,15.70
2018-05-12T00:23:44.640Z,15.61
2018-05-12T00:24:44.852Z,15.59
2018-05-12T00:25:45.107Z,15.64
2018-05-12T00:26:47.093Z,15.57
2018-05-12T00:27:47.094Z,15.59
2018-05-12T00:28:45.581Z,15.48
2018-05-12T00:29:45.791Z,15.45
2018-05-12T00:30:46.010Z,15.48
2018-05-12T00:31:46.223Z,15.52
2018-05-12T00:32:48.084Z,15.45
2018-05-12T00:33:46.678Z,15.43
2018-05-12T00:34:46.888Z,15.41
2018-05-12T00:35:47.109Z,15.38
2018-05-12T00:36:47.309Z,15.41
2018-05-12T00:37:47.533Z,15.42
2018-05-12T00:38:47.757Z,15.41
2018-05-12T00:39:47.980Z,15.36
2018-05-12T00:40:48.188Z,15.28
2018-05-12T00:41:48.414Z,15.30
2018-05-12T00:42:48.626Z,15.24
2018-05-12T00:43:48.848Z,15.35
2018-05-12T00:44:49.061Z,15.35
2018-05-12T00:45:49.274Z,15.24
2018-05-12T00:46:49.489Z,15.27
2018-05-12T00:47:51.605Z,15.28
2018-05-12T00:48:49.944Z,15.24
2018-05-12T00:49:52.101Z,15.33
2018-05-12T00:50:50.306Z,15.33
2018-05-12T00:51:50.512Z,15.26
2018-05-12T00:52:50.730Z,15.33
2018-05-12T00:53:50.960Z,15.30
2018-05-12T00:54:51.179Z,15.24
2018-05-12T00:55:51.398Z,15.15
2018-05-12T00:56:51.614Z,15.15
2018-05-12T00:57:51.832Z,15.15
2018-05-12T00:58:52.046Z,15.09
2018-05-12T00:59:54.097Z,15.13
2018-05-12T01:00:52.439Z,15.17
2018-05-12T01:01:52.663Z,15.19
2018-05-12T01:02:52.888Z,15.13
2018-05-12T01:03:53.106Z,15.24
2018-05-12T01:04:53.311Z,15.26
2018-05-12T01:05:53.527Z,15.26
2018-05-12T01:06:56.593Z,15.27
2018-05-12T01:07:53.933Z,15.24
2018-05-12T01:08:54.155Z,15.24
2018-05-12T01:09:54.376Z,15.35
2018-05-12T01:10:58.498Z,15.35
2018-05-12T01:11:54.814Z,15.38
2018-05-12T01:12:55.030Z,15.36
2018-05-12T01:13:55.251Z,15.38
2018-05-12T01:14:57.093Z,15.33
2018-05-12T01:15:55.676Z,15.19
2018-05-12T01:16:55.902Z,15.12
2018-05-12T01:17:56.113Z,15.11
2018-05-12T01:18:56.326Z,15.15
2018-05-12T01:19:56.545Z,15.17
2018-05-12T01:20:56.753Z,15.09
2018-05-12T01:21:58.597Z,15.11
2018-05-12T01:22:57.195Z,15.19
2018-05-12T01:23:57.414Z,15.23
2018-05-12T01:24:57.624Z,15.30
2018-05-12T01:25:57.851Z,15.31
2018-05-12T01:26:58.061Z,15.26
2018-05-12T01:27:58.285Z,15.27
2018-05-12T01:28:58.513Z,15.27
2018-05-12T01:29:58.719Z,15.33
2018-05-12T01:30:58.923Z,15.35
2018-05-12T01:31:59.144Z,15.35
2018-05-12T01:32:59.370Z,15.24
2018-05-12T01:33:59.581Z,15.13
2018-05-12T01:34:59.800Z,15.12
2018-05-12T01:36:00.029Z,15.15
2018-05-12T01:37:02.089Z,15.09
2018-05-12T01:38:00.433Z,15.13
2018-05-12T01:39:00.644Z,15.15
2018-05-12T01:40:00.852Z,15.15
2018-05-12T01:41:01.070Z,15.12
2018-05-12T01:42:05.090Z,15.03
2018-05-12T01:43:03.096Z,15.05
2018-05-12T01:44:01.577Z,15.08
2018-05-12T01:45:01.781Z,14.90
2018-05-12T01:46:02.029Z,15.03
2018-05-12T01:47:02.218Z,14.88
2018-05-12T01:48:02.426Z,14.81
2018-05-12T01:49:02.648Z,14.87
2018-05-12T01:50:02.858Z,14.88
2018-05-12T01:51:03.087Z,14.87
2018-05-12T01:52:03.316Z,14.81
2018-05-12T01:53:05.098Z,14.74
2018-05-12T01:54:03.703Z,14.69
2018-05-12T01:55:03.923Z,14.64
2018-05-12T01:56:04.139Z,14.71
2018-05-12T01:57:04.354Z,14.67
2018-05-12T01:58:07.096Z,14.64
2018-05-12T01:59:04.811Z,14.80
2018-05-12T02:00:06.590Z,14.68
2018-05-12T02:01:05.181Z,14.67
2018-05-12T02:02:05.400Z,14.65
2018-05-12T02:03:05.614Z,14.50
2018-05-12T02:04:05.838Z,14.47
2018-05-12T02:05:07.610Z,14.44
2018-05-12T02:06:06.201Z,14.44
2018-05-12T02:07:08.097Z,14.37
2018-05-12T02:08:06.578Z,14.42
2018-05-12T02:09:10.591Z,14.39
2018-05-12T02:10:06.929Z,14.34
2018-05-12T02:11:07.170Z,14.31
2018-05-12T02:12:07.351Z,14.35
2018-05-12T02:13:09.098Z,14.37
2018-05-12T02:14:07.682Z,14.39
2018-05-12T02:15:07.900Z,14.35
2018-05-12T02:16:08.135Z,14.35
2018-05-12T02:17:10.093Z,14.38
2018-05-12T02:18:08.577Z,14.32
2018-05-12T02:19:12.593Z,14.37
2018-05-12T02:20:08.925Z,14.37
2018-05-12T02:21:11.093Z,14.16
2018-05-12T02:22:09.336Z,14.24
2018-05-12T02:23:09.514Z,14.21
2018-05-12T02:24:09.766Z,14.24
2018-05-12T02:25:09.999Z,14.19
2018-05-12T02:26:13.596Z,14.13
2018-05-12T02:27:10.298Z,14.19
2018-05-12T02:28:10.521Z,14.16
2018-05-12T02:29:12.612Z,14.09
2018-05-12T02:30:10.939Z,14.10
2018-05-12T02:31:11.168Z,14.10
2018-05-12T02:32:11.381Z,14.14
2018-05-12T02:33:11.587Z,14.13
2018-05-12T02:34:11.815Z,14.13
2018-05-12T02:35:13.601Z,14.07
2018-05-12T02:36:12.193Z,14.09
2018-05-12T02:37:14.100Z,14.09
2018-05-12T02:38:12.564Z,14.09
2018-05-12T02:39:14.596Z,14.04
2018-05-12T02:40:12.929Z,14.04
2018-05-12T02:41:13.140Z,14.04
2018-05-12T02:42:13.364Z,14.01
2018-05-12T02:43:13.571Z,13.92
2018-05-12T02:44:13.779Z,13.94
2018-05-12T02:45:14.006Z,13.91
2018-05-12T02:46:16.099Z,13.96
2018-05-12T02:47:16.091Z,13.99
2018-05-12T02:48:14.564Z,14.01
2018-05-12T02:49:14.784Z,13.96
2018-05-12T02:50:15.007Z,14.06
2018-05-12T02:51:17.109Z,14.01
2018-05-12T02:52:15.443Z,14.07
2018-05-12T02:53:15.660Z,14.01
2018-05-12T02:54:15.916Z,14.04
2018-05-12T02:55:17.592Z,14.01
2018-05-12T02:56:16.307Z,13.89
2018-05-12T02:57:16.531Z,13.88
2018-05-12T02:58:16.755Z,13.95
2018-05-12T02:59:16.954Z,13.92
2018-05-12T03:00:17.192Z,13.91
2018-05-12T03:01:17.400Z,13.84
2018-05-12T03:02:17.604Z,13.88
2018-05-12T03:03:17.819Z,13.84
2018-05-12T03:04:18.044Z,13.67
2018-05-12T03:05:18.246Z,13.81
2018-05-12T03:06:18.472Z,13.79
2018-05-12T03:07:18.672Z,13.59
2018-05-12T03:08:18.902Z,13.62
2018-05-12T03:09:21.096Z,13.55
2018-05-12T03:10:19.305Z,13.55
2018-05-12T03:11:19.525Z,13.44
2018-05-12T03:12:19.732Z,13.46
2018-05-12T03:13:19.940Z,13.33
2018-05-12T03:14:23.107Z,13.41
2018-05-12T03:15:22.099Z,13.33
2018-05-12T03:16:20.447Z,13.38
2018-05-12T03:17:20.675Z,13.36
2018-05-12T03:18:20.908Z,13.21
2018-05-12T03:19:21.117Z,13.25
2018-05-12T03:20:21.327Z,13.24
2018-05-12T03:21:23.105Z,13.14
2018-05-12T03:22:21.695Z,13.22
2018-05-12T03:23:21.901Z,13.17
2018-05-12T03:24:22.167Z,13.15
2018-05-12T03:25:22.331Z,13.15
2018-05-12T03:26:22.582Z,13.12
2018-05-12T03:27:24.599Z,13.29
2018-05-12T03:28:24.602Z,13.22
2018-05-12T03:29:23.073Z,13.24
2018-05-12T03:30:23.291Z,13.12
2018-05-12T03:31:25.100Z,13.18
2018-05-12T03:32:23.701Z,13.18
2018-05-12T03:33:23.909Z,13.15
2018-05-12T03:34:24.119Z,13.00
2018-05-12T03:35:24.345Z,13.04
2018-05-12T03:36:24.593Z,13.06
2018-05-12T03:37:24.773Z,13.03
2018-05-12T03:38:24.989Z,13.07
2018-05-12T03:39:25.204Z,13.00
2018-05-12T03:40:25.486Z,12.93
2018-05-12T03:41:25.574Z,12.81
2018-05-12T03:42:25.787Z,12.89
2018-05-12T03:43:25.997Z,12.88
2018-05-12T03:44:26.212Z,12.95
2018-05-12T03:45:26.434Z,12.87
2018-05-12T03:46:28.600Z,12.79
2018-05-12T03:47:26.816Z,12.88
2018-05-12T03:48:27.032Z,12.87
2018-05-12T03:49:29.684Z,12.93
2018-05-12T03:50:27.419Z,12.85
2018-05-12T03:51:27.631Z,12.84
2018-05-12T03:52:27.833Z,12.89
2018-05-12T03:53:28.047Z,12.79
2018-05-12T03:54:28.256Z,12.69
2018-05-12T03:55:28.481Z,12.70
2018-05-12T03:56:28.709Z,12.67
2018-05-12T03:57:28.924Z,12.66
2018-05-12T03:58:33.095Z,12.66
2018-05-12T03:59:29.322Z,12.57
2018-05-12T04:00:29.525Z,12.59
2018-05-12T04:01:29.745Z,12.64
2018-05-12T04:02:29.948Z,12.74
2018-05-12T04:03:30.151Z,12.62
2018-05-12T04:04:32.097Z,12.52
2018-05-12T04:05:30.567Z,12.45
2018-05-12T04:06:30.792Z,12.29
2018-05-12T04:07:31.050Z,12.41
2018-05-12T04:08:31.224Z,12.29
2018-05-12T04:09:31.453Z,12.24
2018-05-12T04:10:31.641Z,12.29
2018-05-12T04:11:31.857Z,12.31
2018-05-12T04:12:32.061Z,12.27
2018-05-12T04:13:32.269Z,12.19
2018-05-12T04:14:32.532Z,12.27
2018-05-12T04:15:32.714Z,12.29
2018-05-12T04:16:32.961Z,12.20
2018-05-12T04:17:33.175Z,12.41
2018-05-12T04:18:33.391Z,12.29
2018-05-12T04:19:33.604Z,12.27
2018-05-12T04:20:33.817Z,12.30
2018-05-12T04:21:34.024Z,12.34
2018-05-12T04:22:36.104Z,12.42
2018-05-12T04:23:34.444Z,12.51
2018-05-12T04:24:34.668Z,12.74
2018-05-12T04:25:34.884Z,12.82
2018-05-12T04:26:35.102Z,12.96
2018-05-12T04:27:35.316Z,12.95
2018-05-12T04:28:37.099Z,13.09
2018-05-12T04:29:35.679Z,13.00
2018-05-12T04:30:35.909Z,12.99
2018-05-12T04:31:36.126Z,13.29
2018-05-12T04:32:36.394Z,13.24
2018-05-12T04:33:36.482Z,13.17
2018-05-12T04:34:36.762Z,13.36
2018-05-12T04:35:36.915Z,13.41
2018-05-12T04:36:37.128Z,13.62
2018-05-12T04:37:37.350Z,13.73
2018-05-12T04:38:37.581Z,13.77
2018-05-12T04:39:37.803Z,13.79
2018-05-12T04:40:41.601Z,13.87
2018-05-12T04:41:38.177Z,13.74
2018-05-12T04:42:38.398Z,13.56
2018-05-12T04:43:38.626Z,13.56
2018-05-12T04:44:38.839Z,13.51
2018-05-12T04:45:39.092Z,13.73
2018-05-12T04:46:39.206Z,13.94
2018-05-12T04:47:39.421Z,14.04
2018-05-12T04:48:39.638Z,14.12
2018-05-12T04:49:39.851Z,13.96
2018-05-12T04:50:40.062Z,13.77
2018-05-12T04:51:40.278Z,13.88
2018-05-12T04:52:40.484Z,13.95
2018-05-12T04:53:40.711Z,13.99
2018-05-12T04:54:44.613Z,14.01
2018-05-12T04:55:41.071Z,14.12
2018-05-12T04:56:41.296Z,14.02
2018-05-12T04:57:41.512Z,14.25
2018-05-12T04:58:43.602Z,14.44
2018-05-12T04:59:41.937Z,14.49
2018-05-12T05:00:42.141Z,14.56
2018-05-12T05:01:42.394Z,14.72
2018-05-12T05:02:42.578Z,14.56
2018-05-12T05:03:42.798Z,14.60
2018-05-12T05:04:44.604Z,14.71
2018-05-12T05:05:43.186Z,14.87
2018-05-12T05:06:43.407Z,14.99
2018-05-12T05:07:43.628Z,15.12
2018-05-12T05:08:45.630Z,15.39
2018-05-12T05:09:44.096Z,15.30
2018-05-12T05:10:44.318Z,15.09
2018-05-12T05:11:44.523Z,14.88
2018-05-12T05:12:44.770Z,14.69
2018-05-12T05:13:44.972Z,14.80
2018-05-12T05:14:47.098Z,14.68
2018-05-12T05:15:45.313Z,14.71
2018-05-12T05:16:45.533Z,14.91
2018-05-12T05:17:45.756Z,15.06
2018-05-12T05:18:45.952Z,15.30
2018-05-12T05:19:46.186Z,15.66
2018-05-12T05:20:46.407Z,15.93
2018-05-12T05:21:46.625Z,15.67
2018-05-12T05:22:46.845Z,15.94
2018-05-12T05:23:47.067Z,16.01
2018-05-12T05:24:47.293Z,15.92
2018-05-12T05:25:47.523Z,16.03
2018-05-12T05:26:47.723Z,16.34
2018-05-12T05:27:47.946Z,16.48
2018-05-12T05:28:48.162Z,16.77
2018-05-12T05:29:48.373Z,16.98
2018-05-12T05:30:48.596Z,17.08
2018-05-12T05:31:50.604Z,17.23
2018-05-12T05:32:48.942Z,17.46
2018-05-12T05:33:49.163Z,17.76
2018-05-12T05:34:49.380Z,18.12
2018-05-12T05:35:49.602Z,18.21
2018-05-12T05:36:51.608Z,18.28
2018-05-12T05:37:49.949Z,18.39
2018-05-12T05:38:50.168Z,18.43
2018-05-12T05:39:50.382Z,18.62
2018-05-12T05:40:50.593Z,18.68
2018-05-12T05:41:50.820Z,18.94
2018-05-12T05:42:51.035Z,19.06
2018-05-12T05:43:51.278Z,18.91
2018-05-12T05:44:51.486Z,18.97
2018-05-12T05:45:51.697Z,19.08
2018-05-12T05:46:51.949Z,19.13
2018-05-12T05:47:52.153Z,19.32
2018-05-12T05:48:54.115Z,19.32
2018-05-12T05:49:52.592Z,19.68
2018-05-12T05:50:52.806Z,19.84
2018-05-12T05:51:53.023Z,19.88
2018-05-12T05:52:53.239Z,20.10
2018-05-12T05:53:53.457Z,20.28
2018-05-12T05:54:53.688Z,20.62
2018-05-12T05:55:53.909Z,20.72
2018-05-12T05:56:54.136Z,20.74
2018-05-12T05:57:54.355Z,21.05
2018-05-12T05:58:54.573Z,21.21
2018-05-12T05:59:54.800Z,20.79
2018-05-12T06:00:55.032Z,20.25
2018-05-12T06:01:55.248Z,20.10
2018-05-12T06:02:55.477Z,20.24
2018-05-12T06:03:55.689Z,19.60
2018-05-12T06:04:58.632Z,19.43
2018-05-12T06:05:56.084Z,19.60
2018-05-12T06:06:56.335Z,20.12
2018-05-12T06:07:56.556Z,19.91
2018-05-12T06:08:58.605Z,20.05
2018-05-12T06:09:56.945Z,20.23
2018-05-12T06:10:57.167Z,20.41
2018-05-12T06:11:57.383Z,20.80
2018-05-12T06:12:57.607Z,20.93
2018-05-12T06:13:57.813Z,21.42
2018-05-12T06:14:58.045Z,22.01
2018-05-12T06:15:58.254Z,21.44
2018-05-12T06:16:58.477Z,20.84
2018-05-12T06:17:58.781Z,20.69
2018-05-12T06:18:58.940Z,20.93
2018-05-12T06:19:59.193Z,21.20
2018-05-12T06:20:59.421Z,21.60
2018-05-12T06:21:59.646Z,22.16
2018-05-12T06:22:59.861Z,22.20
2018-05-12T06:24:00.085Z,22.50
2018-05-12T06:25:00.310Z,22.59
2018-05-12T06:26:00.540Z,21.97
2018-05-12T06:27:00.843Z,21.94
2018-05-12T06:28:01.102Z,21.90
2018-05-12T06:29:03.110Z,22.20
2018-05-12T06:30:05.133Z,22.02
2018-05-12T06:31:03.116Z,22.07
2018-05-12T06:32:01.714Z,22.23
2018-05-12T06:33:05.609Z,22.56
2018-05-12T06:34:02.088Z,22.86
2018-05-12T06:35:02.315Z,22.83
2018-05-12T06:36:04.123Z,23.45
2018-05-12T06:37:05.635Z,23.29
2018-05-12T06:38:04.610Z,23.15
2018-05-12T06:39:03.075Z,23.11
2018-05-12T06:40:05.137Z,23.45
2018-05-12T06:41:03.455Z,23.55
2018-05-12T06:42:03.683Z,24.01
2018-05-12T06:43:07.616Z,23.92
2018-05-12T06:44:04.099Z,24.13
2018-05-12T06:45:07.109Z,23.90
2018-05-12T06:46:06.172Z,23.50
2018-05-12T06:47:04.621Z,24.05
2018-05-12T06:48:04.845Z,24.12
2018-05-12T06:49:06.644Z,23.53
2018-05-12T06:50:05.251Z,23.61
2018-05-12T06:51:05.483Z,23.83
2018-05-12T06:52:08.611Z,24.10
2018-05-12T06:53:21.609Z,24.50
2018-05-12T06:54:06.197Z,24.76
2018-05-12T06:55:06.414Z,24.59
2018-05-12T06:56:08.612Z,24.00
2018-05-12T06:57:06.829Z,23.07
2018-05-12T06:58:08.613Z,23.14
2018-05-12T06:59:10.136Z,23.31
2018-05-12T07:00:09.124Z,23.40
2018-05-12T07:01:09.128Z,23.62
2018-05-12T07:02:07.745Z,23.71
2018-05-12T07:03:09.606Z,23.72
2018-05-12T07:04:10.107Z,23.29
2018-05-12T07:05:08.383Z,23.26
2018-05-12T07:06:10.129Z,23.61
2018-05-12T07:07:08.857Z,23.40
2018-05-12T07:08:10.615Z,23.62
2018-05-12T07:09:11.062Z,24.32
2018-05-12T07:10:09.428Z,24.45
2018-05-12T07:11:09.645Z,24.02
2018-05-12T07:12:11.614Z,24.12
2018-05-12T07:13:11.655Z,24.80
2018-05-12T07:14:10.294Z,24.63
2018-05-12T07:15:13.145Z,24.64
2018-05-12T07:16:10.616Z,24.41
2018-05-12T07:17:13.575Z,23.94
2018-05-12T07:18:11.065Z,23.52
2018-05-12T07:19:13.133Z,22.96
2018-05-12T07:20:11.493Z,22.92
2018-05-12T07:21:17.617Z,23.11
2018-05-12T07:22:14.568Z,23.40
2018-05-12T07:23:37.114Z,23.90
2018-05-12T07:24:14.111Z,24.77
2018-05-12T07:25:19.120Z,24.68
2018-05-12T07:26:12.707Z,24.14
2018-05-12T07:27:15.622Z,23.50
2018-05-12T07:28:16.621Z,23.04
2018-05-12T07:29:15.113Z,23.52
2018-05-12T07:30:15.143Z,24.32
2018-05-12T07:31:13.639Z,24.91
2018-05-12T07:32:19.661Z,25.54
2018-05-12T07:33:16.651Z,25.25
2018-05-12T07:34:21.215Z,25.22
2018-05-12T07:35:18.571Z,24.57
2018-05-12T07:36:16.118Z,24.61
2018-05-12T07:37:17.660Z,24.87
2018-05-12T07:38:18.624Z,25.05
2018-05-12T07:39:16.614Z,25.35
2018-05-12T07:40:17.144Z,25.46
2018-05-12T07:41:17.164Z,25.52
2018-05-12T07:42:17.611Z,26.05
2018-05-12T07:43:15.882Z,25.72
2018-05-12T07:44:17.087Z,25.17
2018-05-12T07:45:32.129Z,25.98
2018-05-12T07:46:32.149Z,26.20
2018-05-12T07:47:41.140Z,25.93
2018-05-12T07:48:17.568Z,24.91
2018-05-12T07:49:18.655Z,24.50
2018-05-12T07:50:18.077Z,25.34
2018-05-12T07:51:18.320Z,25.71
2018-05-12T07:52:19.143Z,24.71
2018-05-12T07:53:17.750Z,25.25
2018-05-12T07:54:20.647Z,25.69
2018-05-12T07:55:19.674Z,26.15
2018-05-12T07:56:19.090Z,26.54
2018-05-12T07:57:19.073Z,26.43
2018-05-12T07:58:26.632Z,26.96
2018-05-12T07:59:21.590Z,26.55
2018-05-12T08:00:20.625Z,27.41
2018-05-12T08:01:21.129Z,27.59
2018-05-12T08:02:21.123Z,27.58
2018-05-12T08:03:21.081Z,27.79
2018-05-12T08:04:22.328Z,28.23
2018-05-12T08:05:20.049Z,28.04
2018-05-12T08:06:20.280Z,27.19
2018-05-12T08:07:23.121Z,27.33
2018-05-12T08:08:26.666Z,28.04
2018-05-12T08:09:21.905Z,28.66
2018-05-12T08:10:21.856Z,29.20
2018-05-12T08:11:21.361Z,29.62
2018-05-12T08:12:21.467Z,29.55
2018-05-12T08:13:21.703Z,30.46
2018-05-12T08:14:22.944Z,31.18
2018-05-12T08:15:23.613Z,31.53
2018-05-12T08:16:23.583Z,30.98
2018-05-12T08:17:24.114Z,31.05
2018-05-12T08:18:22.608Z,30.93
2018-05-12T08:19:25.637Z,31.31
2018-05-12T08:20:43.996Z,31.92
2018-05-12T08:21:30.159Z,30.80
2018-05-12T08:22:27.072Z,30.46
2018-05-12T08:23:25.130Z,30.89
2018-05-12T08:24:27.666Z,31.18
2018-05-12T08:25:25.634Z,31.58
2018-05-12T08:26:31.616Z,31.87
2018-05-12T08:27:27.137Z,32.02
2018-05-12T08:28:26.117Z,31.68
2018-05-12T08:29:24.562Z,28.95
2018-05-12T08:30:25.615Z,28.25
2018-05-12T08:31:25.024Z,28.29
2018-05-12T08:32:28.121Z,28.13
2018-05-12T08:33:27.116Z,28.04
2018-05-12T08:34:27.620Z,28.33
2018-05-12T08:35:28.469Z,29.11
2018-05-12T08:36:26.090Z,30.00
2018-05-12T08:37:55.254Z,30.15
2018-05-12T08:38:27.484Z,28.22
2018-05-12T08:39:34.622Z,27.89
2018-05-12T08:40:27.642Z,27.21
2018-05-12T08:41:30.783Z,26.96
2018-05-12T08:42:43.991Z,27.89
2018-05-12T08:43:50.012Z,27.61
2018-05-12T08:44:43.623Z,27.67
2018-05-12T08:45:29.635Z,27.66
2018-05-12T08:46:28.043Z,27.59
2018-05-12T08:47:32.446Z,27.96
2018-05-12T08:48:30.004Z,28.84
2018-05-12T08:49:30.144Z,29.82
2018-05-12T08:50:30.616Z,29.96
2018-05-12T08:51:30.111Z,30.61
2018-05-12T08:52:32.107Z,31.08
2018-05-12T08:53:31.178Z,30.71
2018-05-12T08:54:33.111Z,29.97
2018-05-12T08:55:32.633Z,30.27
2018-05-12T08:56:45.680Z,29.93
2018-05-12T08:57:39.713Z,29.33
2018-05-12T08:58:37.144Z,29.56
2018-05-12T08:59:30.393Z,30.21
2018-05-12T09:00:31.635Z,28.46
2018-05-12T09:01:32.756Z,27.86
2018-05-12T09:02:32.626Z,27.98
2018-05-12T09:03:31.263Z,29.06
2018-05-12T09:04:54.143Z,29.75
2018-05-12T09:05:33.121Z,28.66
2018-05-12T09:06:31.890Z,29.35
2018-05-12T09:07:39.646Z,29.53
2018-05-12T09:08:35.119Z,30.19
2018-05-12T09:09:32.518Z,30.46
2018-05-12T09:10:38.630Z,29.25
2018-05-12T09:11:36.652Z,29.97
2018-05-12T09:12:35.085Z,29.53
2018-05-12T09:13:35.069Z,29.70
2018-05-12T09:14:33.689Z,28.29
2018-05-12T09:15:33.916Z,28.31
2018-05-12T09:16:34.149Z,28.29
2018-05-12T09:17:36.118Z,29.10
2018-05-12T09:18:34.546Z,29.25
2018-05-12T09:19:38.617Z,28.13
2018-05-12T09:20:35.989Z,27.98
2018-05-12T09:21:41.622Z,28.21
2018-05-12T09:22:35.371Z,28.68
2018-05-12T09:23:35.510Z,29.15
2018-05-12T09:24:38.649Z,28.82
2018-05-12T09:25:36.113Z,29.62
2018-05-12T09:26:43.169Z,29.04
2018-05-12T09:27:57.424Z,28.25
2018-05-12T09:28:39.570Z,29.18
2018-05-12T09:29:36.802Z,29.71
2018-05-12T09:30:37.032Z,29.65
2018-05-12T09:31:39.080Z,30.29
2018-05-12T09:32:40.171Z,30.19
2018-05-12T09:33:39.623Z,30.43
2018-05-12T09:34:38.884Z,29.92
2018-05-12T09:35:38.521Z,29.38
2018-05-12T09:36:40.133Z,29.22
2018-05-12T09:37:38.485Z,30.16
2018-05-12T09:38:40.632Z,30.11
2018-05-12T09:39:40.620Z,29.16
2018-05-12T09:40:43.598Z,29.20
2018-05-12T09:41:41.158Z,29.34
2018-05-12T09:42:47.123Z,30.07
2018-05-12T09:43:41.621Z,29.16
2018-05-12T09:44:39.858Z,30.24
2018-05-12T09:45:41.644Z,29.72
2018-05-12T09:46:41.570Z,29.49
2018-05-12T09:47:42.096Z,28.97
2018-05-12T09:48:40.605Z,29.41
2018-05-12T09:49:44.618Z,30.19
2018-05-12T09:50:42.665Z,29.49
2018-05-12T09:51:43.143Z,29.70
2018-05-12T09:52:43.132Z,29.47
2018-05-12T09:53:41.617Z,30.21
2018-05-12T09:54:41.861Z,30.24
2018-05-12T09:55:43.077Z,29.37
2018-05-12T09:56:49.175Z,30.43
2018-05-12T09:57:44.129Z,31.01
2018-05-12T09:58:44.626Z,31.84
2018-05-12T09:59:43.033Z,31.75
2018-05-12T10:00:45.590Z,31.64
2018-05-12T10:01:43.363Z,31.60
2018-05-12T10:02:44.502Z,31.70
2018-05-12T10:03:43.648Z,32.02
2018-05-12T10:04:43.859Z,32.32
2018-05-12T10:05:46.647Z,32.24
2018-05-12T10:06:46.110Z,32.27
2018-05-12T10:07:45.478Z,32.57
2018-05-12T10:08:50.071Z,32.59
2018-05-12T10:09:45.058Z,33.03
2018-05-12T10:10:52.618Z,33.15
2018-05-12T10:11:48.394Z,32.67
2018-05-12T10:12:45.610Z,32.91
2018-05-12T10:13:50.627Z,33.22
2018-05-12T10:14:48.607Z,33.03
2018-05-12T10:15:47.670Z,33.17
2018-05-12T10:16:48.124Z,33.01
2018-05-12T10:17:46.512Z,33.06
2018-05-12T10:18:50.636Z,33.74
2018-05-12T10:19:52.853Z,34.23
2018-05-12T10:20:48.646Z,34.42
2018-05-12T10:21:47.258Z,34.41
2018-05-12T10:22:47.453Z,34.42
2018-05-12T10:23:47.698Z,33.71
2018-05-12T10:24:49.110Z,32.39
2018-05-12T10:25:48.111Z,31.70
2018-05-12T10:26:48.359Z,31.61
2018-05-12T10:27:48.497Z,30.62
2018-05-12T10:28:50.156Z,30.57
2018-05-12T10:29:49.340Z,30.30
2018-05-12T10:30:50.614Z,31.24
2018-05-12T10:31:49.211Z,31.72
2018-05-12T10:32:51.118Z,31.92
2018-05-12T10:33:50.073Z,32.48
2018-05-12T10:34:53.625Z,32.99
2018-05-12T10:35:49.852Z,33.60
2018-05-12T10:36:53.699Z,33.58
2018-05-12T10:37:52.162Z,32.74
2018-05-12T10:38:51.580Z,32.24
2018-05-12T10:39:58.623Z,32.13
2018-05-12T10:40:51.044Z,31.84
2018-05-12T10:41:57.290Z,32.22
2018-05-12T10:42:53.124Z,31.75
2018-05-12T10:43:52.616Z,32.33
2018-05-12T10:44:52.449Z,32.96
2018-05-12T10:45:53.217Z,33.19
2018-05-12T10:46:52.336Z,33.31
2018-05-12T10:47:52.614Z,33.85
2018-05-12T10:48:52.724Z,34.17
2018-05-12T10:49:52.996Z,30.75
2018-05-12T10:50:53.105Z,30.31
2018-05-12T10:51:57.135Z,29.40
2018-05-12T10:52:55.134Z,28.97
2018-05-12T10:53:55.127Z,29.66
2018-05-12T10:54:55.596Z,29.19
2018-05-12T10:55:56.622Z,29.13
2018-05-12T10:56:58.157Z,28.70
2018-05-12T10:57:56.135Z,28.26
2018-05-12T10:58:58.115Z,28.32
2018-05-12T10:59:56.668Z,29.03
2018-05-12T11:00:56.625Z,29.63
2018-05-12T11:02:00.012Z,29.79
2018-05-12T11:02:59.145Z,29.55
2018-05-12T11:03:55.664Z,30.15
2018-05-12T11:05:00.127Z,30.29
2018-05-12T11:05:57.619Z,30.47
2018-05-12T11:06:58.588Z,30.53
2018-05-12T11:08:03.162Z,30.45
2018-05-12T11:09:00.119Z,30.34
2018-05-12T11:09:58.581Z,30.37
2018-05-12T11:10:56.972Z,30.02
2018-05-12T11:12:01.578Z,30.23
2018-05-12T11:12:57.366Z,30.47
2018-05-12T11:13:59.123Z,30.93
2018-05-12T11:14:59.657Z,31.30
2018-05-12T11:16:00.657Z,31.79
2018-05-12T11:16:58.067Z,31.68
2018-05-12T11:18:06.125Z,31.49
2018-05-12T11:19:00.133Z,31.24
2018-05-12T11:20:00.118Z,30.45
2018-05-12T11:21:05.632Z,30.68
2018-05-12T11:21:59.191Z,31.45
2018-05-12T11:22:59.334Z,32.25
2018-05-12T11:24:02.169Z,32.33
2018-05-12T11:25:01.621Z,31.99
2018-05-12T11:25:59.994Z,30.93
2018-05-12T11:27:04.582Z,30.59
2018-05-12T11:28:00.455Z,30.93
2018-05-12T11:29:00.563Z,31.20
2018-05-12T11:30:04.639Z,31.36
2018-05-12T11:31:02.621Z,31.50
2018-05-12T11:32:02.625Z,31.50
2018-05-12T11:33:03.127Z,31.21
2018-05-12T11:34:01.483Z,30.45
2018-05-12T11:35:01.707Z,30.02
2018-05-12T11:36:03.626Z,29.96
2018-05-12T11:37:02.103Z,30.37
2018-05-12T11:38:07.097Z,30.37
2018-05-12T11:39:05.126Z,30.67
2018-05-12T11:40:06.668Z,30.26
2018-05-12T11:41:02.891Z,30.29
2018-05-12T11:42:04.636Z,30.16
2018-05-12T11:43:03.404Z,30.29
2018-05-12T11:44:03.516Z,29.56
2018-05-12T11:45:06.565Z,29.66
2018-05-12T11:46:05.617Z,29.28
2018-05-12T11:47:05.096Z,28.50
2018-05-12T11:48:08.116Z,28.47
2018-05-12T11:49:05.491Z,28.11
2018-05-12T11:50:06.147Z,28.31
2018-05-12T11:51:20.729Z,28.06
2018-05-12T11:52:07.567Z,28.22
2018-05-12T11:53:07.121Z,28.46
2018-05-12T11:54:07.109Z,28.59
2018-05-12T11:55:05.576Z,28.80
2018-05-12T11:56:08.623Z,29.00
2018-05-12T11:57:06.003Z,28.16
2018-05-12T11:58:09.633Z,28.48
2018-05-12T11:59:09.119Z,28.31
2018-05-12T12:00:06.566Z,27.94
2018-05-12T12:01:06.721Z,28.07
2018-05-12T12:02:08.651Z,27.70
2018-05-12T12:03:07.576Z,28.26
2018-05-12T12:04:11.116Z,28.54
2018-05-12T12:05:09.450Z,28.81
2018-05-12T12:06:07.577Z,28.90
2018-05-12T12:07:09.681Z,28.81
2018-05-12T12:08:11.626Z,29.10
2018-05-12T12:09:09.631Z,29.44
2018-05-12T12:10:10.122Z,29.45
2018-05-12T12:11:08.591Z,29.55
2018-05-12T12:12:08.821Z,29.74
2018-05-12T12:13:09.594Z,30.07
2018-05-12T12:14:17.174Z,29.89
2018-05-12T12:15:11.129Z,29.65
2018-05-12T12:16:13.137Z,29.62
2018-05-12T12:17:16.622Z,29.57
2018-05-12T12:18:13.658Z,29.49
2018-05-12T12:19:14.749Z,29.01
2018-05-12T12:20:12.076Z,28.26
2018-05-12T12:21:10.712Z,26.86
2018-05-12T12:22:12.591Z,27.13
2018-05-12T12:23:12.085Z,27.13
2018-05-12T12:24:15.123Z,27.32
2018-05-12T12:25:12.476Z,27.66
2018-05-12T12:26:19.639Z,27.99
2018-05-12T12:27:11.845Z,28.23
2018-05-12T12:28:13.621Z,28.43
2018-05-12T12:29:14.132Z,28.70
2018-05-12T12:30:16.077Z,28.90
2018-05-12T12:31:12.604Z,29.26
2018-05-12T12:32:14.622Z,29.34
2018-05-12T12:33:24.716Z,29.49
2018-05-12T12:34:13.140Z,29.62
2018-05-12T12:35:15.140Z,29.49
2018-05-12T12:36:15.166Z,29.45
2018-05-12T12:37:15.623Z,29.60
2018-05-12T12:38:19.871Z,29.53
2018-05-12T12:39:14.018Z,29.49
2018-05-12T12:40:16.167Z,29.56
2018-05-12T12:41:26.140Z,29.37
2018-05-12T12:42:18.119Z,29.28
2018-05-12T12:43:14.715Z,29.06
2018-05-12T12:44:18.646Z,28.32
2018-05-12T12:45:16.626Z,28.31
2018-05-12T12:46:15.237Z,28.16
2018-05-12T12:47:19.125Z,28.22
2018-05-12T12:48:17.131Z,28.44
2018-05-12T12:49:17.619Z,28.06
2018-05-12T12:50:15.908Z,28.11
2018-05-12T12:51:18.168Z,27.38
2018-05-12T12:52:16.266Z,27.35
2018-05-12T12:53:16.495Z,27.32
2018-05-12T12:54:16.735Z,27.46
2018-05-12T12:55:16.970Z,27.39